sensor_id;sensor_type;location;lat;lon;timestamp;P1;durP1;ratioP1;P2;durP2;ratioP2
19828;SDS011;10075;50.924;4.396;2023-07-13T00:01:04;10.18;;;2.10;;
19828;SDS011;10075;50.924;4.396;2023-07-13T00:03:31;13.13;;;2.03;;
19828;SDS011;10075;50.924;4.396;2023-07-13T00:06:01;7.95;;;1.85;;
19828;SDS011;10075;50.924;4.396;2023-07-13T00:08:30;7.47;;;2.35;;
19828;SDS011;10075;50.924;4.396;2023-07-13T00:10:58;7.72;;;1.90;;
19828;SDS011;10075;50.924;4.396;2023-07-13T00:13:25;9.65;;;2.40;;
19828;SDS011;10075;50.924;4.396;2023-07-13T00:15:52;8.40;;;1.77;;
19828;SDS011;10075;50.924;4.396;2023-07-13T00:18:21;12.30;;;2.80;;
19828;SDS011;10075;50.924;4.396;2023-07-13T00:20:48;6.20;;;2.13;;
19828;SDS011;10075;50.924;4.396;2023-07-13T00:23:16;6.78;;;1.90;;
19828;SDS011;10075;50.924;4.396;2023-07-13T00:25:44;14.35;;;2.47;;
19828;SDS011;10075;50.924;4.396;2023-07-13T00:28:11;7.20;;;2.17;;
19828;SDS011;10075;50.924;4.396;2023-07-13T00:30:38;8.07;;;2.28;;
19828;SDS011;10075;50.924;4.396;2023-07-13T00:33:05;8.45;;;2.20;;
19828;SDS011;10075;50.924;4.396;2023-07-13T00:35:32;9.55;;;2.25;;
19828;SDS011;10075;50.924;4.396;2023-07-13T00:38:00;6.15;;;2.22;;
19828;SDS011;10075;50.924;4.396;2023-07-13T00:40:29;7.63;;;2.15;;
19828;SDS011;10075;50.924;4.396;2023-07-13T00:42:57;7.50;;;2.22;;
19828;SDS011;10075;50.924;4.396;2023-07-13T00:48:43;8.73;;;2.20;;
19828;SDS011;10075;50.924;4.396;2023-07-13T00:51:13;13.25;;;2.70;;
19828;SDS011;10075;50.924;4.396;2023-07-13T00:53:41;11.88;;;2.30;;
19828;SDS011;10075;50.924;4.396;2023-07-13T00:56:10;7.47;;;2.00;;
19828;SDS011;10075;50.924;4.396;2023-07-13T00:58:37;8.18;;;2.20;;
19828;SDS011;10075;50.924;4.396;2023-07-13T01:01:04;11.98;;;2.50;;
19828;SDS011;10075;50.924;4.396;2023-07-13T01:03:31;12.10;;;2.83;;
19828;SDS011;10075;50.924;4.396;2023-07-13T01:06:00;8.57;;;2.03;;
19828;SDS011;10075;50.924;4.396;2023-07-13T01:08:27;7.72;;;2.53;;
19828;SDS011;10075;50.924;4.396;2023-07-13T01:10:54;10.63;;;2.15;;
19828;SDS011;10075;50.924;4.396;2023-07-13T01:13:24;10.05;;;2.47;;
19828;SDS011;10075;50.924;4.396;2023-07-13T01:15:52;11.55;;;2.30;;
19828;SDS011;10075;50.924;4.396;2023-07-13T01:18:21;14.73;;;2.97;;
19828;SDS011;10075;50.924;4.396;2023-07-13T01:20:53;9.15;;;2.47;;
19828;SDS011;10075;50.924;4.396;2023-07-13T01:23:21;5.57;;;2.65;;
19828;SDS011;10075;50.924;4.396;2023-07-13T01:25:49;10.43;;;2.58;;
19828;SDS011;10075;50.924;4.396;2023-07-13T01:28:17;9.57;;;2.60;;
19828;SDS011;10075;50.924;4.396;2023-07-13T01:30:45;12.80;;;3.38;;
19828;SDS011;10075;50.924;4.396;2023-07-13T01:33:12;11.02;;;3.10;;
19828;SDS011;10075;50.924;4.396;2023-07-13T01:35:41;13.52;;;2.95;;
19828;SDS011;10075;50.924;4.396;2023-07-13T01:38:10;10.43;;;2.60;;
19828;SDS011;10075;50.924;4.396;2023-07-13T01:40:37;15.55;;;2.55;;
19828;SDS011;10075;50.924;4.396;2023-07-13T01:43:05;8.85;;;2.28;;
19828;SDS011;10075;50.924;4.396;2023-07-13T01:45:32;11.07;;;2.50;;
19828;SDS011;10075;50.924;4.396;2023-07-13T01:47:59;16.55;;;2.97;;
19828;SDS011;10075;50.924;4.396;2023-07-13T01:50:26;8.27;;;2.35;;
19828;SDS011;10075;50.924;4.396;2023-07-13T01:52:53;12.10;;;3.13;;
19828;SDS011;10075;50.924;4.396;2023-07-13T01:55:22;8.00;;;2.55;;
19828;SDS011;10075;50.924;4.396;2023-07-13T01:57:49;10.88;;;2.90;;
19828;SDS011;10075;50.924;4.396;2023-07-13T02:00:16;12.57;;;2.78;;
19828;SDS011;10075;50.924;4.396;2023-07-13T02:02:44;9.15;;;2.70;;
19828;SDS011;10075;50.924;4.396;2023-07-13T02:05:11;8.48;;;2.35;;
19828;SDS011;10075;50.924;4.396;2023-07-13T02:07:38;7.70;;;2.35;;
19828;SDS011;10075;50.924;4.396;2023-07-13T02:10:06;9.90;;;2.92;;
19828;SDS011;10075;50.924;4.396;2023-07-13T02:12:36;13.10;;;2.85;;
19828;SDS011;10075;50.924;4.396;2023-07-13T02:15:03;11.52;;;3.10;;
19828;SDS011;10075;50.924;4.396;2023-07-13T02:17:31;12.10;;;3.08;;
19828;SDS011;10075;50.924;4.396;2023-07-13T02:19:58;11.68;;;2.63;;
19828;SDS011;10075;50.924;4.396;2023-07-13T02:22:25;11.88;;;2.58;;
19828;SDS011;10075;50.924;4.396;2023-07-13T02:24:52;14.90;;;2.83;;
19828;SDS011;10075;50.924;4.396;2023-07-13T02:27:19;17.38;;;3.28;;
19828;SDS011;10075;50.924;4.396;2023-07-13T02:29:47;10.93;;;3.10;;
19828;SDS011;10075;50.924;4.396;2023-07-13T02:32:16;10.73;;;2.72;;
19828;SDS011;10075;50.924;4.396;2023-07-13T02:34:43;14.80;;;3.40;;
19828;SDS011;10075;50.924;4.396;2023-07-13T02:37:11;12.70;;;3.17;;
19828;SDS011;10075;50.924;4.396;2023-07-13T02:39:38;13.18;;;3.45;;
19828;SDS011;10075;50.924;4.396;2023-07-13T02:42:05;14.02;;;3.15;;
19828;SDS011;10075;50.924;4.396;2023-07-13T02:44:33;12.30;;;3.20;;
19828;SDS011;10075;50.924;4.396;2023-07-13T02:47:01;15.07;;;3.10;;
19828;SDS011;10075;50.924;4.396;2023-07-13T02:49:28;16.38;;;3.42;;
19828;SDS011;10075;50.924;4.396;2023-07-13T02:51:55;12.32;;;3.10;;
19828;SDS011;10075;50.924;4.396;2023-07-13T02:54:21;12.75;;;3.45;;
19828;SDS011;10075;50.924;4.396;2023-07-13T02:56:48;8.80;;;3.03;;
19828;SDS011;10075;50.924;4.396;2023-07-13T02:59:15;11.80;;;2.72;;
19828;SDS011;10075;50.924;4.396;2023-07-13T03:01:42;10.82;;;3.17;;
19828;SDS011;10075;50.924;4.396;2023-07-13T03:04:11;12.65;;;3.35;;
19828;SDS011;10075;50.924;4.396;2023-07-13T03:06:38;11.68;;;3.22;;
19828;SDS011;10075;50.924;4.396;2023-07-13T03:09:05;11.55;;;2.88;;
19828;SDS011;10075;50.924;4.396;2023-07-13T03:11:33;13.13;;;3.38;;
19828;SDS011;10075;50.924;4.396;2023-07-13T03:14:00;13.27;;;3.92;;
19828;SDS011;10075;50.924;4.396;2023-07-13T03:16:27;12.52;;;3.10;;
19828;SDS011;10075;50.924;4.396;2023-07-13T03:18:54;15.55;;;3.30;;
19828;SDS011;10075;50.924;4.396;2023-07-13T03:21:22;11.93;;;3.22;;
19828;SDS011;10075;50.924;4.396;2023-07-13T03:23:49;15.13;;;3.30;;
19828;SDS011;10075;50.924;4.396;2023-07-13T03:26:17;16.25;;;3.08;;
19828;SDS011;10075;50.924;4.396;2023-07-13T03:28:46;12.35;;;3.20;;
19828;SDS011;10075;50.924;4.396;2023-07-13T03:31:14;14.95;;;3.60;;
19828;SDS011;10075;50.924;4.396;2023-07-13T03:33:42;23.75;;;4.55;;
19828;SDS011;10075;50.924;4.396;2023-07-13T03:36:11;14.15;;;3.30;;
19828;SDS011;10075;50.924;4.396;2023-07-13T03:38:42;17.52;;;3.33;;
19828;SDS011;10075;50.924;4.396;2023-07-13T03:41:09;12.68;;;3.92;;
19828;SDS011;10075;50.924;4.396;2023-07-13T03:43:36;13.40;;;3.53;;
19828;SDS011;10075;50.924;4.396;2023-07-13T03:46:03;10.98;;;3.05;;
19828;SDS011;10075;50.924;4.396;2023-07-13T03:48:30;10.25;;;2.75;;
19828;SDS011;10075;50.924;4.396;2023-07-13T03:50:57;11.35;;;3.03;;
19828;SDS011;10075;50.924;4.396;2023-07-13T03:53:24;13.77;;;3.65;;
19828;SDS011;10075;50.924;4.396;2023-07-13T03:55:52;15.57;;;3.90;;
19828;SDS011;10075;50.924;4.396;2023-07-13T03:58:29;10.25;;;3.28;;
19828;SDS011;10075;50.924;4.396;2023-07-13T04:00:58;11.07;;;2.78;;
19828;SDS011;10075;50.924;4.396;2023-07-13T04:03:26;12.32;;;2.92;;
19828;SDS011;10075;50.924;4.396;2023-07-13T04:05:53;14.32;;;3.33;;
19828;SDS011;10075;50.924;4.396;2023-07-13T04:08:25;13.05;;;3.30;;
19828;SDS011;10075;50.924;4.396;2023-07-13T04:10:54;12.38;;;3.13;;
19828;SDS011;10075;50.924;4.396;2023-07-13T04:13:22;16.95;;;3.53;;
19828;SDS011;10075;50.924;4.396;2023-07-13T04:15:49;11.48;;;3.55;;
19828;SDS011;10075;50.924;4.396;2023-07-13T04:18:17;12.82;;;3.17;;
19828;SDS011;10075;50.924;4.396;2023-07-13T04:20:45;15.05;;;3.40;;
19828;SDS011;10075;50.924;4.396;2023-07-13T04:23:12;13.43;;;3.53;;
19828;SDS011;10075;50.924;4.396;2023-07-13T04:25:39;13.68;;;3.60;;
19828;SDS011;10075;50.924;4.396;2023-07-13T04:28:10;11.07;;;3.55;;
19828;SDS011;10075;50.924;4.396;2023-07-13T04:30:37;12.05;;;3.85;;
19828;SDS011;10075;50.924;4.396;2023-07-13T04:33:04;13.45;;;3.30;;
19828;SDS011;10075;50.924;4.396;2023-07-13T04:35:31;15.93;;;3.83;;
19828;SDS011;10075;50.924;4.396;2023-07-13T04:37:58;15.73;;;3.53;;
19828;SDS011;10075;50.924;4.396;2023-07-13T04:40:25;13.23;;;3.50;;
19828;SDS011;10075;50.924;4.396;2023-07-13T04:42:53;15.10;;;4.18;;
19828;SDS011;10075;50.924;4.396;2023-07-13T04:45:22;17.80;;;3.78;;
19828;SDS011;10075;50.924;4.396;2023-07-13T04:47:50;13.63;;;3.95;;
19828;SDS011;10075;50.924;4.396;2023-07-13T04:50:17;13.60;;;3.38;;
19828;SDS011;10075;50.924;4.396;2023-07-13T04:52:48;13.60;;;3.80;;
19828;SDS011;10075;50.924;4.396;2023-07-13T04:55:15;17.08;;;3.50;;
19828;SDS011;10075;50.924;4.396;2023-07-13T04:57:43;14.68;;;3.88;;
19828;SDS011;10075;50.924;4.396;2023-07-13T05:00:10;17.60;;;4.38;;
19828;SDS011;10075;50.924;4.396;2023-07-13T05:02:40;10.25;;;3.22;;
19828;SDS011;10075;50.924;4.396;2023-07-13T05:05:09;11.68;;;3.55;;
19828;SDS011;10075;50.924;4.396;2023-07-13T05:07:36;16.30;;;3.85;;
19828;SDS011;10075;50.924;4.396;2023-07-13T05:10:03;18.40;;;3.90;;
19828;SDS011;10075;50.924;4.396;2023-07-13T05:12:31;15.02;;;3.45;;
19828;SDS011;10075;50.924;4.396;2023-07-13T05:14:58;10.25;;;3.15;;
19828;SDS011;10075;50.924;4.396;2023-07-13T05:17:25;14.73;;;3.20;;
19828;SDS011;10075;50.924;4.396;2023-07-13T05:19:53;14.60;;;3.80;;
19828;SDS011;10075;50.924;4.396;2023-07-13T05:22:20;12.95;;;3.33;;
19828;SDS011;10075;50.924;4.396;2023-07-13T05:24:47;13.05;;;4.28;;
19828;SDS011;10075;50.924;4.396;2023-07-13T05:27:14;11.57;;;3.60;;
19828;SDS011;10075;50.924;4.396;2023-07-13T05:29:42;12.80;;;3.53;;
19828;SDS011;10075;50.924;4.396;2023-07-13T05:32:09;12.80;;;3.63;;
19828;SDS011;10075;50.924;4.396;2023-07-13T05:34:36;10.15;;;3.60;;
19828;SDS011;10075;50.924;4.396;2023-07-13T05:37:05;18.48;;;3.83;;
19828;SDS011;10075;50.924;4.396;2023-07-13T05:39:32;16.42;;;3.80;;
19828;SDS011;10075;50.924;4.396;2023-07-13T05:41:58;15.90;;;4.00;;
19828;SDS011;10075;50.924;4.396;2023-07-13T05:44:25;11.27;;;3.47;;
19828;SDS011;10075;50.924;4.396;2023-07-13T05:46:52;13.82;;;3.60;;
19828;SDS011;10075;50.924;4.396;2023-07-13T05:49:20;17.73;;;3.85;;
19828;SDS011;10075;50.924;4.396;2023-07-13T05:51:47;12.18;;;3.42;;
19828;SDS011;10075;50.924;4.396;2023-07-13T05:54:15;15.07;;;3.92;;
19828;SDS011;10075;50.924;4.396;2023-07-13T05:56:42;14.25;;;3.55;;
19828;SDS011;10075;50.924;4.396;2023-07-13T05:59:09;15.80;;;3.65;;
19828;SDS011;10075;50.924;4.396;2023-07-13T06:01:36;15.25;;;3.88;;
19828;SDS011;10075;50.924;4.396;2023-07-13T06:04:03;15.77;;;3.88;;
19828;SDS011;10075;50.924;4.396;2023-07-13T06:06:30;16.48;;;4.40;;
19828;SDS011;10075;50.924;4.396;2023-07-13T06:08:57;13.73;;;3.60;;
19828;SDS011;10075;50.924;4.396;2023-07-13T06:11:26;17.38;;;3.80;;
19828;SDS011;10075;50.924;4.396;2023-07-13T06:13:55;16.33;;;3.50;;
19828;SDS011;10075;50.924;4.396;2023-07-13T06:16:22;16.20;;;3.70;;
19828;SDS011;10075;50.924;4.396;2023-07-13T06:18:50;13.63;;;3.50;;
19828;SDS011;10075;50.924;4.396;2023-07-13T06:21:17;16.77;;;3.60;;
19828;SDS011;10075;50.924;4.396;2023-07-13T06:23:46;16.35;;;4.03;;
19828;SDS011;10075;50.924;4.396;2023-07-13T06:26:14;13.75;;;3.67;;
19828;SDS011;10075;50.924;4.396;2023-07-13T06:28:43;12.57;;;3.10;;
19828;SDS011;10075;50.924;4.396;2023-07-13T06:31:11;17.88;;;3.75;;
19828;SDS011;10075;50.924;4.396;2023-07-13T06:33:39;11.90;;;3.55;;
19828;SDS011;10075;50.924;4.396;2023-07-13T06:36:07;14.80;;;3.38;;
19828;SDS011;10075;50.924;4.396;2023-07-13T06:38:35;12.15;;;3.42;;
19828;SDS011;10075;50.924;4.396;2023-07-13T06:41:02;13.10;;;2.97;;
19828;SDS011;10075;50.924;4.396;2023-07-13T06:43:29;14.38;;;3.35;;
19828;SDS011;10075;50.924;4.396;2023-07-13T06:45:58;22.90;;;3.88;;
19828;SDS011;10075;50.924;4.396;2023-07-13T06:48:26;12.07;;;2.97;;
19828;SDS011;10075;50.924;4.396;2023-07-13T06:50:53;15.02;;;3.70;;
19828;SDS011;10075;50.924;4.396;2023-07-13T06:53:20;12.18;;;3.40;;
19828;SDS011;10075;50.924;4.396;2023-07-13T06:55:47;13.07;;;3.28;;
19828;SDS011;10075;50.924;4.396;2023-07-13T06:58:15;12.02;;;3.70;;
19828;SDS011;10075;50.924;4.396;2023-07-13T07:00:43;13.30;;;3.63;;
19828;SDS011;10075;50.924;4.396;2023-07-13T07:03:11;13.57;;;3.38;;
19828;SDS011;10075;50.924;4.396;2023-07-13T07:05:39;11.00;;;3.58;;
19828;SDS011;10075;50.924;4.396;2023-07-13T07:08:06;12.75;;;4.18;;
19828;SDS011;10075;50.924;4.396;2023-07-13T07:10:33;16.83;;;3.80;;
19828;SDS011;10075;50.924;4.396;2023-07-13T07:13:00;14.10;;;4.35;;
19828;SDS011;10075;50.924;4.396;2023-07-13T07:15:28;13.18;;;3.92;;
19828;SDS011;10075;50.924;4.396;2023-07-13T07:17:55;13.93;;;3.83;;
19828;SDS011;10075;50.924;4.396;2023-07-13T07:20:23;16.85;;;3.78;;
19828;SDS011;10075;50.924;4.396;2023-07-13T07:22:50;9.23;;;3.10;;
19828;SDS011;10075;50.924;4.396;2023-07-13T07:25:17;11.93;;;3.33;;
19828;SDS011;10075;50.924;4.396;2023-07-13T07:27:44;16.40;;;3.75;;
19828;SDS011;10075;50.924;4.396;2023-07-13T07:30:12;11.60;;;3.25;;
19828;SDS011;10075;50.924;4.396;2023-07-13T07:32:40;12.38;;;3.42;;
19828;SDS011;10075;50.924;4.396;2023-07-13T07:35:09;12.50;;;3.20;;
19828;SDS011;10075;50.924;4.396;2023-07-13T07:37:37;11.45;;;3.65;;
19828;SDS011;10075;50.924;4.396;2023-07-13T07:40:04;12.82;;;3.80;;
19828;SDS011;10075;50.924;4.396;2023-07-13T07:42:33;12.20;;;3.78;;
19828;SDS011;10075;50.924;4.396;2023-07-13T07:45:00;11.63;;;3.38;;
19828;SDS011;10075;50.924;4.396;2023-07-13T07:47:27;16.00;;;3.97;;
19828;SDS011;10075;50.924;4.396;2023-07-13T07:49:54;10.90;;;3.30;;
19828;SDS011;10075;50.924;4.396;2023-07-13T07:52:20;11.25;;;3.10;;
19828;SDS011;10075;50.924;4.396;2023-07-13T07:54:49;13.73;;;3.38;;
19828;SDS011;10075;50.924;4.396;2023-07-13T07:57:16;12.50;;;3.40;;
19828;SDS011;10075;50.924;4.396;2023-07-13T07:59:43;14.02;;;3.03;;
19828;SDS011;10075;50.924;4.396;2023-07-13T08:02:10;16.70;;;3.63;;
19828;SDS011;10075;50.924;4.396;2023-07-13T08:04:37;8.85;;;2.72;;
19828;SDS011;10075;50.924;4.396;2023-07-13T08:07:04;12.85;;;2.70;;
19828;SDS011;10075;50.924;4.396;2023-07-13T08:09:32;15.32;;;3.75;;
19828;SDS011;10075;50.924;4.396;2023-07-13T08:12:00;14.82;;;3.13;;
19828;SDS011;10075;50.924;4.396;2023-07-13T08:14:27;13.00;;;3.35;;
19828;SDS011;10075;50.924;4.396;2023-07-13T08:16:54;15.80;;;4.13;;
19828;SDS011;10075;50.924;4.396;2023-07-13T08:19:21;13.80;;;3.65;;
19828;SDS011;10075;50.924;4.396;2023-07-13T08:21:48;8.55;;;2.95;;
19828;SDS011;10075;50.924;4.396;2023-07-13T08:24:15;9.48;;;3.22;;
19828;SDS011;10075;50.924;4.396;2023-07-13T08:26:43;10.93;;;3.40;;
19828;SDS011;10075;50.924;4.396;2023-07-13T08:29:12;12.93;;;3.22;;
19828;SDS011;10075;50.924;4.396;2023-07-13T08:31:39;14.40;;;3.63;;
19828;SDS011;10075;50.924;4.396;2023-07-13T08:34:06;10.90;;;3.00;;
19828;SDS011;10075;50.924;4.396;2023-07-13T08:36:33;11.77;;;3.38;;
19828;SDS011;10075;50.924;4.396;2023-07-13T08:39:00;12.95;;;3.25;;
19828;SDS011;10075;50.924;4.396;2023-07-13T08:41:27;13.27;;;3.00;;
19828;SDS011;10075;50.924;4.396;2023-07-13T08:43:56;11.10;;;3.17;;
19828;SDS011;10075;50.924;4.396;2023-07-13T08:46:28;10.88;;;3.10;;
19828;SDS011;10075;50.924;4.396;2023-07-13T08:49:01;8.68;;;2.67;;
19828;SDS011;10075;50.924;4.396;2023-07-13T08:51:33;11.43;;;3.15;;
19828;SDS011;10075;50.924;4.396;2023-07-13T08:54:08;12.60;;;3.22;;
19828;SDS011;10075;50.924;4.396;2023-07-13T08:56:43;8.98;;;3.13;;
19828;SDS011;10075;50.924;4.396;2023-07-13T08:59:14;9.88;;;2.72;;
19828;SDS011;10075;50.924;4.396;2023-07-13T09:01:54;9.05;;;2.45;;
19828;SDS011;10075;50.924;4.396;2023-07-13T09:04:35;8.68;;;2.72;;
19828;SDS011;10075;50.924;4.396;2023-07-13T09:07:11;7.20;;;2.75;;
19828;SDS011;10075;50.924;4.396;2023-07-13T09:09:50;11.00;;;2.75;;
19828;SDS011;10075;50.924;4.396;2023-07-13T09:12:25;8.80;;;2.63;;
19828;SDS011;10075;50.924;4.396;2023-07-13T09:14:59;10.85;;;2.67;;
19828;SDS011;10075;50.924;4.396;2023-07-13T09:17:32;8.60;;;2.60;;
19828;SDS011;10075;50.924;4.396;2023-07-13T09:20:04;6.93;;;2.28;;
19828;SDS011;10075;50.924;4.396;2023-07-13T09:22:37;6.57;;;2.50;;
19828;SDS011;10075;50.924;4.396;2023-07-13T09:25:05;5.90;;;2.35;;
19828;SDS011;10075;50.924;4.396;2023-07-13T09:27:46;12.73;;;2.97;;
19828;SDS011;10075;50.924;4.396;2023-07-13T09:30:25;8.88;;;2.47;;
19828;SDS011;10075;50.924;4.396;2023-07-13T09:32:59;9.10;;;2.80;;
19828;SDS011;10075;50.924;4.396;2023-07-13T09:35:27;7.78;;;2.45;;
19828;SDS011;10075;50.924;4.396;2023-07-13T09:37:59;8.60;;;2.33;;
19828;SDS011;10075;50.924;4.396;2023-07-13T09:40:33;7.97;;;2.47;;
19828;SDS011;10075;50.924;4.396;2023-07-13T09:43:05;7.00;;;2.30;;
19828;SDS011;10075;50.924;4.396;2023-07-13T09:45:36;7.82;;;2.35;;
19828;SDS011;10075;50.924;4.396;2023-07-13T09:48:06;8.63;;;2.60;;
19828;SDS011;10075;50.924;4.396;2023-07-13T09:50:38;8.88;;;2.38;;
19828;SDS011;10075;50.924;4.396;2023-07-13T09:53:11;6.82;;;2.17;;
19828;SDS011;10075;50.924;4.396;2023-07-13T09:55:39;8.93;;;2.35;;
19828;SDS011;10075;50.924;4.396;2023-07-13T09:58:09;8.50;;;2.25;;
19828;SDS011;10075;50.924;4.396;2023-07-13T10:00:38;6.63;;;2.15;;
19828;SDS011;10075;50.924;4.396;2023-07-13T10:03:17;8.18;;;2.60;;
19828;SDS011;10075;50.924;4.396;2023-07-13T10:05:47;7.97;;;2.17;;
19828;SDS011;10075;50.924;4.396;2023-07-13T10:08:21;6.85;;;2.13;;
19828;SDS011;10075;50.924;4.396;2023-07-13T10:10:53;9.38;;;2.25;;
19828;SDS011;10075;50.924;4.396;2023-07-13T10:13:26;5.30;;;1.77;;
19828;SDS011;10075;50.924;4.396;2023-07-13T10:15:56;5.60;;;2.05;;
19828;SDS011;10075;50.924;4.396;2023-07-13T10:18:26;6.55;;;2.17;;
19828;SDS011;10075;50.924;4.396;2023-07-13T10:20:58;2.90;;;1.77;;
19828;SDS011;10075;50.924;4.396;2023-07-13T10:23:37;8.65;;;2.38;;
19828;SDS011;10075;50.924;4.396;2023-07-13T10:26:04;7.85;;;2.08;;
19828;SDS011;10075;50.924;4.396;2023-07-13T10:28:42;6.53;;;2.13;;
19828;SDS011;10075;50.924;4.396;2023-07-13T10:31:13;8.65;;;2.35;;
19828;SDS011;10075;50.924;4.396;2023-07-13T10:33:43;6.47;;;1.88;;
19828;SDS011;10075;50.924;4.396;2023-07-13T10:36:15;6.72;;;2.33;;
19828;SDS011;10075;50.924;4.396;2023-07-13T10:38:47;8.10;;;2.75;;
19828;SDS011;10075;50.924;4.396;2023-07-13T10:41:18;5.72;;;1.80;;
19828;SDS011;10075;50.924;4.396;2023-07-13T10:43:47;4.45;;;1.83;;
19828;SDS011;10075;50.924;4.396;2023-07-13T10:46:18;6.30;;;2.03;;
19828;SDS011;10075;50.924;4.396;2023-07-13T10:48:48;7.93;;;2.70;;
19828;SDS011;10075;50.924;4.396;2023-07-13T10:51:20;7.25;;;2.13;;
19828;SDS011;10075;50.924;4.396;2023-07-13T10:53:48;8.00;;;2.80;;
19828;SDS011;10075;50.924;4.396;2023-07-13T10:56:41;6.05;;;2.28;;
19828;SDS011;10075;50.924;4.396;2023-07-13T10:59:10;9.70;;;2.33;;
19828;SDS011;10075;50.924;4.396;2023-07-13T11:01:40;8.23;;;2.67;;
19828;SDS011;10075;50.924;4.396;2023-07-13T11:04:17;6.78;;;2.88;;
19828;SDS011;10075;50.924;4.396;2023-07-13T11:06:47;8.50;;;2.40;;
19828;SDS011;10075;50.924;4.396;2023-07-13T11:09:19;12.02;;;3.17;;
19828;SDS011;10075;50.924;4.396;2023-07-13T11:12:10;9.05;;;2.88;;
19828;SDS011;10075;50.924;4.396;2023-07-13T11:15:04;9.35;;;2.95;;
19828;SDS011;10075;50.924;4.396;2023-07-13T11:17:38;8.35;;;2.58;;
19828;SDS011;10075;50.924;4.396;2023-07-13T11:20:23;9.02;;;2.60;;
19828;SDS011;10075;50.924;4.396;2023-07-13T11:23:08;6.50;;;2.83;;
19828;SDS011;10075;50.924;4.396;2023-07-13T11:25:56;6.68;;;2.13;;
19828;SDS011;10075;50.924;4.396;2023-07-13T11:28:25;8.50;;;2.13;;
19828;SDS011;10075;50.924;4.396;2023-07-13T11:31:02;6.80;;;2.50;;
19828;SDS011;10075;50.924;4.396;2023-07-13T11:33:53;7.00;;;2.17;;
19828;SDS011;10075;50.924;4.396;2023-07-13T11:36:28;6.00;;;2.28;;
19828;SDS011;10075;50.924;4.396;2023-07-13T11:39:04;9.55;;;2.22;;
19828;SDS011;10075;50.924;4.396;2023-07-13T11:41:43;7.93;;;2.20;;
19828;SDS011;10075;50.924;4.396;2023-07-13T11:44:13;9.05;;;2.35;;
19828;SDS011;10075;50.924;4.396;2023-07-13T11:46:45;7.80;;;1.92;;
19828;SDS011;10075;50.924;4.396;2023-07-13T11:49:17;7.63;;;1.92;;
19828;SDS011;10075;50.924;4.396;2023-07-13T11:51:46;8.00;;;1.98;;
19828;SDS011;10075;50.924;4.396;2023-07-13T11:54:22;9.77;;;3.30;;
19828;SDS011;10075;50.924;4.396;2023-07-13T11:56:51;10.00;;;3.22;;
19828;SDS011;10075;50.924;4.396;2023-07-13T11:59:19;10.23;;;2.92;;
19828;SDS011;10075;50.924;4.396;2023-07-13T12:01:49;10.35;;;3.00;;
19828;SDS011;10075;50.924;4.396;2023-07-13T12:04:20;10.70;;;2.70;;
19828;SDS011;10075;50.924;4.396;2023-07-13T12:06:55;7.15;;;3.10;;
19828;SDS011;10075;50.924;4.396;2023-07-13T12:09:26;8.88;;;2.70;;
19828;SDS011;10075;50.924;4.396;2023-07-13T12:11:55;5.22;;;2.92;;
19828;SDS011;10075;50.924;4.396;2023-07-13T12:14:25;13.98;;;3.13;;
19828;SDS011;10075;50.924;4.396;2023-07-13T12:16:52;12.32;;;3.60;;
19828;SDS011;10075;50.924;4.396;2023-07-13T12:19:20;4.85;;;1.95;;
19828;SDS011;10075;50.924;4.396;2023-07-13T12:21:49;4.93;;;1.83;;
19828;SDS011;10075;50.924;4.396;2023-07-13T12:24:20;5.10;;;1.92;;
19828;SDS011;10075;50.924;4.396;2023-07-13T12:26:52;7.28;;;2.65;;
19828;SDS011;10075;50.924;4.396;2023-07-13T12:29:20;7.38;;;2.00;;
19828;SDS011;10075;50.924;4.396;2023-07-13T12:31:48;8.20;;;2.45;;
19828;SDS011;10075;50.924;4.396;2023-07-13T12:34:18;6.93;;;1.98;;
19828;SDS011;10075;50.924;4.396;2023-07-13T12:36:49;3.80;;;2.10;;
19828;SDS011;10075;50.924;4.396;2023-07-13T12:39:23;4.60;;;2.08;;
19828;SDS011;10075;50.924;4.396;2023-07-13T12:41:59;5.53;;;2.05;;
19828;SDS011;10075;50.924;4.396;2023-07-13T12:44:43;8.45;;;2.30;;
19828;SDS011;10075;50.924;4.396;2023-07-13T12:47:12;6.15;;;3.00;;
19828;SDS011;10075;50.924;4.396;2023-07-13T12:49:41;4.05;;;1.75;;
19828;SDS011;10075;50.924;4.396;2023-07-13T12:52:14;3.13;;;2.05;;
19828;SDS011;10075;50.924;4.396;2023-07-13T12:54:53;3.15;;;1.95;;
19828;SDS011;10075;50.924;4.396;2023-07-13T12:57:22;3.88;;;2.15;;
19828;SDS011;10075;50.924;4.396;2023-07-13T12:59:51;5.10;;;2.17;;
19828;SDS011;10075;50.924;4.396;2023-07-13T13:02:22;7.25;;;2.20;;
19828;SDS011;10075;50.924;4.396;2023-07-13T13:04:56;4.68;;;2.78;;
19828;SDS011;10075;50.924;4.396;2023-07-13T13:07:24;9.73;;;3.33;;
19828;SDS011;10075;50.924;4.396;2023-07-13T13:09:53;6.82;;;3.08;;
19828;SDS011;10075;50.924;4.396;2023-07-13T13:12:21;6.28;;;2.92;;
19828;SDS011;10075;50.924;4.396;2023-07-13T13:14:50;10.45;;;2.92;;
19828;SDS011;10075;50.924;4.396;2023-07-13T13:17:19;4.60;;;2.33;;
19828;SDS011;10075;50.924;4.396;2023-07-13T13:19:49;5.22;;;2.25;;
19828;SDS011;10075;50.924;4.396;2023-07-13T13:22:18;3.70;;;2.00;;
19828;SDS011;10075;50.924;4.396;2023-07-13T13:24:45;4.47;;;1.98;;
19828;SDS011;10075;50.924;4.396;2023-07-13T13:27:16;6.00;;;2.17;;
19828;SDS011;10075;50.924;4.396;2023-07-13T13:29:45;3.75;;;1.83;;
19828;SDS011;10075;50.924;4.396;2023-07-13T13:32:12;3.92;;;1.77;;
19828;SDS011;10075;50.924;4.396;2023-07-13T13:34:40;4.05;;;1.77;;
19828;SDS011;10075;50.924;4.396;2023-07-13T13:37:18;5.07;;;1.73;;
19828;SDS011;10075;50.924;4.396;2023-07-13T13:39:46;3.65;;;1.60;;
19828;SDS011;10075;50.924;4.396;2023-07-13T13:42:14;3.95;;;1.63;;
19828;SDS011;10075;50.924;4.396;2023-07-13T13:44:42;6.63;;;2.17;;
19828;SDS011;10075;50.924;4.396;2023-07-13T13:47:17;4.90;;;1.65;;
19828;SDS011;10075;50.924;4.396;2023-07-13T13:49:53;3.95;;;1.63;;
19828;SDS011;10075;50.924;4.396;2023-07-13T13:52:20;6.72;;;1.98;;
19828;SDS011;10075;50.924;4.396;2023-07-13T13:54:47;5.32;;;1.60;;
19828;SDS011;10075;50.924;4.396;2023-07-13T13:57:16;6.03;;;1.52;;
19828;SDS011;10075;50.924;4.396;2023-07-13T13:59:43;6.90;;;1.52;;
19828;SDS011;10075;50.924;4.396;2023-07-13T14:02:16;6.72;;;2.15;;
19828;SDS011;10075;50.924;4.396;2023-07-13T14:04:49;4.45;;;1.50;;
19828;SDS011;10075;50.924;4.396;2023-07-13T14:07:20;5.55;;;1.50;;
19828;SDS011;10075;50.924;4.396;2023-07-13T14:09:47;4.03;;;1.38;;
19828;SDS011;10075;50.924;4.396;2023-07-13T14:12:15;2.95;;;1.15;;
19828;SDS011;10075;50.924;4.396;2023-07-13T14:14:43;4.05;;;1.63;;
19828;SDS011;10075;50.924;4.396;2023-07-13T14:17:15;4.50;;;1.20;;
19828;SDS011;10075;50.924;4.396;2023-07-13T14:19:47;6.07;;;1.67;;
19828;SDS011;10075;50.924;4.396;2023-07-13T14:22:16;4.53;;;1.80;;
19828;SDS011;10075;50.924;4.396;2023-07-13T14:24:44;6.05;;;1.63;;
19828;SDS011;10075;50.924;4.396;2023-07-13T14:27:11;4.90;;;1.77;;
19828;SDS011;10075;50.924;4.396;2023-07-13T14:29:40;3.38;;;1.50;;
19828;SDS011;10075;50.924;4.396;2023-07-13T14:32:10;3.30;;;1.52;;
19828;SDS011;10075;50.924;4.396;2023-07-13T14:34:38;4.07;;;1.13;;
19828;SDS011;10075;50.924;4.396;2023-07-13T14:37:05;3.45;;;1.23;;
19828;SDS011;10075;50.924;4.396;2023-07-13T14:39:38;3.45;;;1.35;;
19828;SDS011;10075;50.924;4.396;2023-07-13T14:42:08;4.18;;;1.42;;
19828;SDS011;10075;50.924;4.396;2023-07-13T14:44:35;3.95;;;1.52;;
19828;SDS011;10075;50.924;4.396;2023-07-13T14:47:05;6.78;;;1.50;;
19828;SDS011;10075;50.924;4.396;2023-07-13T14:49:34;4.75;;;1.40;;
19828;SDS011;10075;50.924;4.396;2023-07-13T14:52:05;4.35;;;1.75;;
19828;SDS011;10075;50.924;4.396;2023-07-13T14:54:37;3.72;;;1.50;;
19828;SDS011;10075;50.924;4.396;2023-07-13T14:57:08;4.05;;;1.33;;